Time;durP1;ratioP1;P1;durP2;ratioP2;P2;SDS_P1;SDS_P2;PMS_P1;PMS_P2;Temp;Humidity;BMP_temperature;BMP_pressure;BME280_temperature;BME280_humidity;BME280_pressure;Samples;Min_cycle;Max_cycle;Signal;HPM_P1;HPM_P2
2023/06/16 00:00:36;;;;;;;;;;;;;;;16.75;56.62;98302.00;7373936;19;19935;-73
2023/06/16 00:03:03;;;;;;;;;;;;;;;16.78;55.78;98304.31;7365817;19;19925;-74
2023/06/16 00:05:30;;;;;;;;;;;;;;;16.75;55.38;98306.53;7366512;19;19925;-75
2023/06/16 00:07:59;;;;;;;;;;;;;;;16.72;56.43;98304.22;7368939;19;19950;-74
2023/06/16 00:10:26;;;;;;;;;;;;;;;16.71;55.66;98306.06;7370050;19;20324;-74
2023/06/16 00:12:53;;;;;;;;;;;;;;;16.65;56.20;98304.19;7381242;19;20836;-74
2023/06/16 00:15:20;;;;;;;;;;;;;;;16.63;56.10;98312.38;7379825;19;19923;-72
2023/06/16 00:17:46;;;;;;;;;;;;;;;16.78;55.63;98308.81;7374450;19;20304;-73
2023/06/16 00:20:14;;;;;;;;;;;;;;;16.76;54.60;98308.97;7371320;19;20458;-71
2023/06/16 00:22:41;;;;;;;;;;;;;;;16.88;54.26;98310.13;7364364;19;19915;-74
2023/06/16 00:25:09;;;;;;;;;;;;;;;16.88;55.06;98314.63;7370138;19;19922;-74
2023/06/16 00:27:35;;;;;;;;;;;;;;;16.93;55.30;98304.19;7370340;19;19914;-72
2023/06/16 00:30:03;;;;;;;;;;;;;;;16.81;55.02;98308.44;7369703;19;19958;-73
2023/06/16 00:32:30;;;;;;;;;;;;;;;16.63;56.83;98314.25;7372545;19;19926;-73
2023/06/16 00:34:57;;;;;;;;;;;;;;;16.54;57.86;98305.56;7371220;19;19930;-73
2023/06/16 00:37:23;;;;;;;;;;;;;;;16.64;56.58;98306.03;7370026;19;19930;-73
2023/06/16 00:39:50;;;;;;;;;;;;;;;16.52;57.95;98301.44;7371452;19;19923;-74
2023/06/16 00:42:17;;;;;;;;;;;;;;;16.43;58.13;98303.44;7368676;19;20006;-71
2023/06/16 00:44:44;;;;;;;;;;;;;;;16.40;58.04;98306.47;7367206;19;19945;-70
2023/06/16 00:47:11;;;;;;;;;;;;;;;16.29;58.39;98305.16;7371345;19;19938;-75
2023/06/16 00:49:38;;;;;;;;;;;;;;;16.31;57.37;98296.97;7374615;19;19960;-71
2023/06/16 00:52:05;;;;;;;;;;;;;;;16.13;58.63;98294.78;7365488;19;19950;-74
2023/06/16 00:54:32;;;;;;;;;;;;;;;16.14;58.70;98297.28;7369116;19;19915;-74
2023/06/16 00:56:59;;;;;;;;;;;;;;;16.06;58.70;98293.91;7366668;19;19925;-74
2023/06/16 00:59:27;;;;;;;;;;;;;;;16.26;57.86;98294.06;7363061;19;19925;-74
2023/06/16 01:01:55;;;;;;;;;;;;;;;16.20;57.41;98293.81;7362468;19;19948;-74
2023/06/16 01:04:22;;;;;;;;;;;;;;;16.17;57.80;98298.72;7370580;19;19926;-73
2023/06/16 01:06:57;;;;;;;;;;;;;;;16.08;57.89;98291.88;7366406;19;20507;-74
2023/06/16 01:09:39;;;;;;;;;;;;;;;15.83;59.06;98310.97;7368716;19;19941;-73
2023/06/16 01:12:21;;;;;;;;;;;;;;;15.76;59.95;98308.22;7359466;19;19922;-74
2023/06/16 01:14:49;;;;;;;;;;;;;;;15.85;61.22;98310.75;7363847;19;19923;-72
2023/06/16 01:17:16;;;;;;;;;;;;;;;15.85;60.46;98308.06;7368971;19;19918;-73
2023/06/16 01:20:06;;;;;;;;;;;;;;;16.04;59.63;98299.44;7372224;19;19925;-74
2023/06/16 01:22:33;;;;;;;;;;;;;;;16.12;58.85;98295.81;7380521;19;20621;-74
2023/06/16 01:25:00;;;;;;;;;;;;;;;15.99;58.98;98301.88;7377378;19;19922;-73
2023/06/16 01:27:29;;;;;;;;;;;;;;;15.72;60.52;98300.81;7376522;19;19926;-74
2023/06/16 01:29:57;;;;;;;;;;;;;;;15.54;60.42;98294.03;7373258;19;20368;-75
2023/06/16 01:32:24;;;;;;;;;;;;;;;15.57;61.16;98301.63;7375997;19;19954;-73
2023/06/16 01:34:51;;;;;;;;;;;;;;;15.50;60.96;98306.06;7373200;19;19919;-74
2023/06/16 01:37:18;;;;;;;;;;;;;;;15.55;60.28;98300.16;7375100;19;19943;-75
2023/06/16 01:39:45;;;;;;;;;;;;;;;15.54;60.64;98299.34;7375916;19;19933;-75
2023/06/16 01:42:12;;;;;;;;;;;;;;;15.60;61.40;98300.44;7374828;19;19919;-74
2023/06/16 01:44:40;;;;;;;;;;;;;;;15.62;60.87;98301.06;7377810;19;20240;-74
2023/06/16 01:47:07;;;;;;;;;;;;;;;15.67;61.36;98301.34;7374354;19;19914;-73
2023/06/16 01:49:33;;;;;;;;;;;;;;;15.83;60.28;98299.47;7372334;19;19918;-73
2023/06/16 01:52:01;;;;;;;;;;;;;;;15.89;59.88;98301.34;7364504;19;19936;-71
2023/06/16 01:54:28;;;;;;;;;;;;;;;15.78;59.68;98303.53;7376704;19;19926;-74
2023/06/16 01:56:55;;;;;;;;;;;;;;;15.67;59.78;98304.00;7377644;19;20349;-75
2023/06/16 01:59:21;;;;;;;;;;;;;;;15.55;60.89;98305.50;7377976;19;19915;-73
2023/06/16 02:01:49;;;;;;;;;;;;;;;15.54;60.69;98299.34;7373822;19;19923;-74
2023/06/16 02:04:20;;;;;;;;;;;;;;;15.51;60.85;98302.41;7377131;19;19922;-75
2023/06/16 02:06:51;;;;;;;;;;;;;;;15.34;62.72;98300.97;7372369;19;19922;-73
2023/06/16 02:09:18;;;;;;;;;;;;;;;15.24;62.35;98301.25;7373931;19;19919;-73
2023/06/16 02:11:45;;;;;;;;;;;;;;;15.43;61.81;98304.34;7368021;19;19922;-72
2023/06/16 02:14:12;;;;;;;;;;;;;;;15.07;62.38;98300.66;7371357;19;19923;-73
2023/06/16 02:16:42;;;;;;;;;;;;;;;15.36;61.54;98305.09;7370211;19;19911;-74
2023/06/16 02:19:09;;;;;;;;;;;;;;;15.56;61.10;98304.47;7373345;19;19923;-74
2023/06/16 02:21:37;;;;;;;;;;;;;;;15.70;60.82;98300.97;7374392;19;20345;-75
2023/06/16 02:24:04;;;;;;;;;;;;;;;15.49;61.40;98309.75;7374807;19;19927;-75
2023/06/16 02:26:32;;;;;;;;;;;;;;;15.57;60.36;98312.31;7367567;19;20526;-74
2023/06/16 02:28:58;;;;;;;;;;;;;;;15.60;60.43;98308.44;7378322;19;22487;-75
2023/06/16 02:31:25;;;;;;;;;;;;;;;15.63;60.33;98316.06;7377545;19;19925;-73
2023/06/16 02:33:53;;;;;;;;;;;;;;;15.51;60.39;98322.91;7375556;19;20282;-75
2023/06/16 02:36:20;;;;;;;;;;;;;;;15.28;62.40;98329.19;7374365;19;20395;-75
2023/06/16 02:38:46;;;;;;;;;;;;;;;15.35;62.67;98323.97;7376872;19;19925;-75
2023/06/16 02:41:13;;;;;;;;;;;;;;;15.29;62.72;98324.69;7375564;19;19923;-74
2023/06/16 02:43:40;;;;;;;;;;;;;;;15.32;62.28;98324.31;7373472;19;20253;-74
2023/06/16 02:46:07;;;;;;;;;;;;;;;15.39;62.19;98321.75;7371867;19;20233;-76
2023/06/16 02:48:34;;;;;;;;;;;;;;;15.41;61.90;98319.72;7377123;19;19919;-72
2023/06/16 02:51:00;;;;;;;;;;;;;;;15.59;61.92;98323.63;7372883;19;19926;-74
2023/06/16 02:53:29;;;;;;;;;;;;;;;15.52;61.76;98316.56;7376134;19;19929;-75
2023/06/16 02:56:02;;;;;;;;;;;;;;;15.62;61.61;98311.75;7370748;19;19946;-72
2023/06/16 02:58:31;;;;;;;;;;;;;;;15.88;61.69;98310.38;7363634;19;19986;-73
2023/06/16 03:00:58;;;;;;;;;;;;;;;15.98;62.23;98318.88;7368144;19;19914;-73
2023/06/16 03:03:37;;;;;;;;;;;;;;;16.23;61.14;98306.78;7374144;19;19926;-73
2023/06/16 03:06:23;;;;;;;;;;;;;;;16.30;59.93;98306.84;7372896;19;20383;-73
2023/06/16 03:08:50;;;;;;;;;;;;;;;16.29;59.94;98309.69;7371441;19;20245;-72
2023/06/16 03:11:17;;;;;;;;;;;;;;;16.16;60.85;98308.56;7374297;19;19918;-72
2023/06/16 03:13:49;;;;;;;;;;;;;;;16.24;59.57;98313.78;7367912;19;19922;-70
2023/06/16 03:16:20;;;;;;;;;;;;;;;16.02;59.54;98314.81;7367135;19;19922;-73
2023/06/16 03:18:48;;;;;;;;;;;;;;;15.80;60.77;98325.50;7362735;19;20321;-74
2023/06/16 03:21:16;;;;;;;;;;;;;;;15.75;61.61;98324.41;7375191;19;19919;-71
2023/06/16 03:23:46;;;;;;;;;;;;;;;15.75;62.10;98321.75;7373158;19;19926;-74
2023/06/16 03:26:13;;;;;;;;;;;;;;;15.77;62.70;98317.03;7369935;19;19956;-74
2023/06/16 03:28:58;;;;;;;;;;;;;;;15.82;62.05;98325.28;7372376;19;19915;-71
2023/06/16 03:31:26;;;;;;;;;;;;;;;15.76;61.84;98331.41;7371751;19;19950;-70
2023/06/16 03:33:54;;;;;;;;;;;;;;;15.73;60.85;98329.13;7361983;19;20363;-72
2023/06/16 03:36:36;;;;;;;;;;;;;;;15.61;61.22;98326.06;7377278;19;19922;-73
2023/06/16 03:39:03;;;;;;;;;;;;;;;15.52;62.01;98333.38;7369947;19;19914;-71
2023/06/16 03:41:34;;;;;;;;;;;;;;;15.54;61.74;98333.19;7371202;19;19941;-73
2023/06/16 03:44:04;;;;;;;;;;;;;;;15.43;62.00;98331.00;7372582;19;20023;-72
2023/06/16 03:46:31;;;;;;;;;;;;;;;15.31;62.29;98323.50;7380955;19;19922;-73
2023/06/16 03:49:00;;;;;;;;;;;;;;;15.12;63.67;98329.41;7367896;19;19925;-72
2023/06/16 03:51:27;;;;;;;;;;;;;;;15.09;63.81;98319.97;7370957;19;19923;-73
2023/06/16 03:53:54;;;;;;;;;;;;;;;15.23;63.74;98326.28;7366856;19;19940;-74
2023/06/16 03:56:21;;;;;;;;;;;;;;;15.36;63.35;98331.75;7376459;19;19926;-74
2023/06/16 03:58:49;;;;;;;;;;;;;;;15.44;61.82;98333.50;7372826;19;19930;-74
2023/06/16 04:01:16;;;;;;;;;;;;;;;15.34;62.21;98331.09;7371260;19;19926;-74
2023/06/16 04:03:43;;;;;;;;;;;;;;;15.28;63.83;98339.03;7369075;19;19994;-73
2023/06/16 04:06:10;;;;;;;;;;;;;;;15.34;62.25;98338.28;7361742;19;19922;-74
2023/06/16 04:08:37;;;;;;;;;;;;;;;15.27;63.16;98337.38;7373793;19;19990;-72
2023/06/16 04:11:04;;;;;;;;;;;;;;;15.31;63.11;98334.16;7365720;19;19943;-71
2023/06/16 04:13:31;;;;;;;;;;;;;;;15.44;61.89;98343.34;7366109;19;19923;-73
2023/06/16 04:16:02;;;;;;;;;;;;;;;15.24;63.59;98337.75;7369966;19;19911;-74
2023/06/16 04:18:29;;;;;;;;;;;;;;;15.42;62.03;98337.34;7371154;19;19923;-74
2023/06/16 04:20:56;;;;;;;;;;;;;;;15.24;63.00;98335.91;7363977;19;20072;-72
2023/06/16 04:23:23;;;;;;;;;;;;;;;15.12;64.88;98337.41;7359576;19;20677;-74
2023/06/16 04:25:50;;;;;;;;;;;;;;;15.47;62.80;98332.28;7366640;19;19942;-73
2023/06/16 04:28:17;;;;;;;;;;;;;;;15.54;62.24;98338.53;7363185;19;19930;-73
2023/06/16 04:30:50;;;;;;;;;;;;;;;15.61;62.31;98339.41;7368709;19;19929;-73
2023/06/16 04:33:17;;;;;;;;;;;;;;;15.75;61.11;98341.25;7362613;19;19978;-73
2023/06/16 04:35:44;;;;;;;;;;;;;;;15.86;61.00;98339.09;7366758;19;20612;-73
2023/06/16 04:38:11;;;;;;;;;;;;;;;15.94;60.97;98344.31;7365900;19;19919;-73
2023/06/16 04:40:38;;;;;;;;;;;;;;;16.06;61.54;98345.44;7369734;19;19942;-72
2023/06/16 04:43:06;;;;;;;;;;;;;;;16.09;62.37;98339.72;7366332;19;19923;-73
2023/06/16 04:45:32;;;;;;;;;;;;;;;16.32;60.91;98330.66;7372318;19;19923;-74
2023/06/16 04:48:00;;;;;;;;;;;;;;;16.43;59.72;98333.63;7364487;19;19923;-73
2023/06/16 04:50:28;;;;;;;;;;;;;;;16.28;59.70;98332.91;7363690;19;20002;-74
2023/06/16 04:52:54;;;;;;;;;;;;;;;16.13;60.19;98338.31;7365536;19;19933;-73
2023/06/16 04:55:21;;;;;;;;;;;;;;;16.09;61.83;98339.72;7365377;19;19918;-75
2023/06/16 04:57:48;;;;;;;;;;;;;;;16.24;62.71;98334.28;7363911;19;19918;-73
2023/06/16 05:00:15;;;;;;;;;;;;;;;16.40;61.54;98338.53;7364205;19;20364;-75
2023/06/16 05:02:43;;;;;;;;;;;;;;;16.38;60.14;98336.06;7370479;19;19918;-75
2023/06/16 05:05:10;;;;;;;;;;;;;;;16.53;61.51;98335.13;7368980;19;19929;-75
2023/06/16 05:07:37;;;;;;;;;;;;;;;16.72;60.61;98336.28;7362726;19;19911;-75
2023/06/16 05:10:05;;;;;;;;;;;;;;;16.88;60.82;98336.00;7356215;19;20030;-74
2023/06/16 05:12:32;;;;;;;;;;;;;;;17.01;60.25;98341.44;7362793;19;19938;-74
2023/06/16 05:14:59;;;;;;;;;;;;;;;17.15;59.00;98333.47;7363597;19;20664;-75
2023/06/16 05:17:26;;;;;;;;;;;;;;;17.22;58.84;98329.81;7370298;19;19955;-75
2023/06/16 05:19:56;;;;;;;;;;;;;;;17.45;58.31;98331.31;7372248;19;19927;-75
2023/06/16 05:22:23;;;;;;;;;;;;;;;17.51;58.47;98330.53;7373766;19;20323;-75
2023/06/16 05:24:53;;;;;;;;;;;;;;;17.57;56.77;98339.59;7370243;19;19930;-74
2023/06/16 05:27:22;;;;;;;;;;;;;;;17.59;57.25;98332.16;7368783;19;19923;-73
2023/06/16 05:29:51;;;;;;;;;;;;;;;17.59;57.46;98337.53;7368504;19;19925;-74
2023/06/16 05:32:19;;;;;;;;;;;;;;;17.71;56.71;98338.59;7359691;19;19927;-75
2023/06/16 05:34:47;;;;;;;;;;;;;;;17.78;57.42;98334.91;7364978;19;19921;-74
2023/06/16 05:37:15;;;;;;;;;;;;;;;18.01;56.37;98340.94;7364601;19;22342;-75
2023/06/16 05:39:43;;;;;;;;;;;;;;;18.07;55.99;98338.28;7370036;19;19940;-75
2023/06/16 05:42:10;;;;;;;;;;;;;;;18.24;55.97;98340.53;7369756;19;19929;-74
2023/06/16 05:44:37;;;;;;;;;;;;;;;18.37;53.11;98344.03;7367863;19;19915;-75
2023/06/16 05:47:05;;;;;;;;;;;;;;;18.36;54.36;98344.25;7367203;19;19995;-76
2023/06/16 05:49:32;;;;;;;;;;;;;;;18.50;55.01;98342.41;7373599;19;19925;-75
2023/06/16 05:52:01;;;;;;;;;;;;;;;18.64;53.70;98344.88;7368155;19;19929;-74
2023/06/16 05:54:28;;;;;;;;;;;;;;;18.56;55.88;98350.44;7369386;19;20351;-75
2023/06/16 05:56:56;;;;;;;;;;;;;;;18.63;54.56;98342.38;7368408;19;19927;-73
2023/06/16 05:59:24;;;;;;;;;;;;;;;18.65;56.42;98345.69;7371771;19;20359;-75
2023/06/16 06:01:51;;;;;;;;;;;;;;;18.77;55.59;98349.41;7367428;19;19990;-73
2023/06/16 06:04:28;;;;;;;;;;;;;;;18.89;55.47;98354.94;7373967;19;19953;-75
2023/06/16 06:06:56;;;;;;;;;;;;;;;18.95;55.61;98359.47;7373103;19;20264;-74
2023/06/16 06:09:24;;;;;;;;;;;;;;;19.11;53.33;98360.84;7376838;19;19943;-75
2023/06/16 06:11:51;;;;;;;;;;;;;;;19.23;53.91;98358.38;7376182;19;19925;-76
2023/06/16 06:14:18;;;;;;;;;;;;;;;19.34;53.75;98362.25;7377063;19;20283;-74
2023/06/16 06:16:44;;;;;;;;;;;;;;;19.43;54.98;98360.94;7379106;19;19919;-74
2023/06/16 06:19:11;;;;;;;;;;;;;;;19.59;53.65;98360.50;7370249;19;19927;-72
2023/06/16 06:21:39;;;;;;;;;;;;;;;19.89;51.59;98363.44;7372475;19;20357;-74
2023/06/16 06:24:06;;;;;;;;;;;;;;;20.13;53.22;98361.00;7368944;19;19934;-73
2023/06/16 06:26:34;;;;;;;;;;;;;;;20.37;54.21;98375.50;7378262;19;20308;-74
2023/06/16 06:29:01;;;;;;;;;;;;;;;20.87;49.51;98366.63;7373547;19;19922;-75
2023/06/16 06:31:28;;;;;;;;;;;;;;;21.26;48.36;98362.69;7374158;19;19926;-74
2023/06/16 06:33:56;;;;;;;;;;;;;;;21.41;52.42;98363.16;7371284;19;19925;-72
2023/06/16 06:36:25;;;;;;;;;;;;;;;21.58;49.48;98357.16;7370954;19;20359;-75
2023/06/16 06:38:53;;;;;;;;;;;;;;;21.70;48.02;98369.63;7376020;19;19938;-75
2023/06/16 06:41:21;;;;;;;;;;;;;;;21.54;48.26;98370.25;7370725;19;19910;-75
2023/06/16 06:43:55;;;;;;;;;;;;;;;21.50;50.47;98370.91;7369530;19;20344;-74
2023/06/16 06:46:40;;;;;;;;;;;;;;;21.43;48.96;98377.22;7372377;19;19926;-73
2023/06/16 06:49:07;;;;;;;;;;;;;;;21.58;46.81;98373.28;7367893;19;20471;-75
2023/06/16 06:51:35;;;;;;;;;;;;;;;21.54;48.53;98382.84;7371255;19;19918;-74
2023/06/16 06:54:03;;;;;;;;;;;;;;;21.45;46.72;98391.25;7367381;19;19922;-72
2023/06/16 06:56:29;;;;;;;;;;;;;;;21.54;44.94;98381.00;7372110;19;19922;-74
2023/06/16 06:58:56;;;;;;;;;;;;;;;21.64;46.91;98383.16;7370275;19;19937;-73
2023/06/16 07:01:23;;;;;;;;;;;;;;;21.59;45.87;98385.69;7370164;19;19927;-74
2023/06/16 07:03:49;;;;;;;;;;;;;;;21.71;45.12;98386.59;7375772;19;19930;-74
2023/06/16 07:06:17;;;;;;;;;;;;;;;21.46;45.44;98381.31;7371115;19;19930;-74
2023/06/16 07:08:43;;;;;;;;;;;;;;;21.73;43.78;98389.06;7370209;19;20003;-74
2023/06/16 07:11:10;;;;;;;;;;;;;;;21.80;47.33;98385.22;7368128;19;19923;-75
2023/06/16 07:13:37;;;;;;;;;;;;;;;21.86;49.04;98391.56;7366600;19;19933;-74
2023/06/16 07:16:04;;;;;;;;;;;;;;;21.95;45.00;98384.00;7371032;19;19929;-74
2023/06/16 07:18:30;;;;;;;;;;;;;;;22.07;47.72;98393.75;7374596;19;19931;-72
2023/06/16 07:20:57;;;;;;;;;;;;;;;22.25;47.67;98395.59;7373988;19;19926;-72
2023/06/16 07:23:25;;;;;;;;;;;;;;;22.27;43.97;98395.34;7374091;19;20498;-74
2023/06/16 07:25:52;;;;;;;;;;;;;;;22.29;46.26;98391.38;7373860;19;20179;-75
2023/06/16 07:28:19;;;;;;;;;;;;;;;22.32;41.66;98396.31;7366597;19;19926;-75
2023/06/16 07:30:46;;;;;;;;;;;;;;;22.43;40.68;98400.06;7376137;19;19925;-75
2023/06/16 07:33:13;;;;;;;;;;;;;;;21.94;39.96;98399.34;7370367;19;19929;-73
2023/06/16 07:35:39;;;;;;;;;;;;;;;22.58;39.60;98396.94;7373264;19;19914;-74
2023/06/16 07:38:06;;;;;;;;;;;;;;;22.65;40.26;98400.34;7371090;19;20197;-74
2023/06/16 07:40:33;;;;;;;;;;;;;;;22.76;40.71;98402.22;7374619;19;19918;-73
2023/06/16 07:42:59;;;;;;;;;;;;;;;22.99;40.91;98403.34;7369201;19;19919;-73
2023/06/16 07:45:26;;;;;;;;;;;;;;;22.92;38.45;98402.59;7374749;19;19927;-74
2023/06/16 07:47:53;;;;;;;;;;;;;;;23.17;39.51;98402.34;7376589;19;19926;-72
2023/06/16 07:50:19;;;;;;;;;;;;;;;23.46;40.91;98397.88;7371515;19;19919;-74
2023/06/16 07:52:47;;;;;;;;;;;;;;;23.69;41.07;98399.66;7374912;19;19929;-73
2023/06/16 07:55:14;;;;;;;;;;;;;;;23.71;44.26;98399.44;7372621;19;20262;-74
2023/06/16 07:57:41;;;;;;;;;;;;;;;23.84;38.54;98393.78;7371348;19;19915;-73
2023/06/16 08:00:14;;;;;;;;;;;;;;;23.90;38.39;98394.69;7366630;19;19923;-74
2023/06/16 08:02:41;;;;;;;;;;;;;;;24.10;37.25;98387.78;7375633;19;19940;-74
2023/06/16 08:05:09;;;;;;;;;;;;;;;24.10;36.12;98398.59;7370400;19;19939;-74
2023/06/16 08:07:36;;;;;;;;;;;;;;;24.29;38.63;98387.56;7374131;19;20332;-74
2023/06/16 08:10:04;;;;;;;;;;;;;;;24.25;37.56;98391.81;7365074;19;19918;-73
2023/06/16 08:12:31;;;;;;;;;;;;;;;24.53;36.79;98383.66;7374689;19;19926;-75
2023/06/16 08:14:58;;;;;;;;;;;;;;;24.64;37.12;98389.25;7374412;19;21037;-72
2023/06/16 08:17:25;;;;;;;;;;;;;;;24.58;38.61;98390.22;7363713;19;19918;-75
2023/06/16 08:19:53;;;;;;;;;;;;;;;24.70;39.55;98385.56;7373527;19;20479;-74
2023/06/16 08:22:20;;;;;;;;;;;;;;;24.71;38.75;98388.00;7367209;19;19986;-74
2023/06/16 08:24:46;;;;;;;;;;;;;;;24.74;37.54;98382.09;7372680;19;20345;-74
2023/06/16 08:27:14;;;;;;;;;;;;;;;24.83;38.69;98387.09;7365482;19;19931;-74
2023/06/16 08:29:41;;;;;;;;;;;;;;;24.68;36.87;98379.56;7369735;19;20645;-74
2023/06/16 08:32:07;;;;;;;;;;;;;;;24.85;38.83;98380.38;7364202;19;19922;-74
2023/06/16 08:34:35;;;;;;;;;;;;;;;25.08;33.24;98373.94;7374074;19;19923;-76
2023/06/16 08:37:02;;;;;;;;;;;;;;;25.32;34.05;98371.03;7374240;19;19923;-74
2023/06/16 08:39:45;;;;;;;;;;;;;;;25.59;36.14;98379.19;7372147;19;19929;-75
2023/06/16 08:42:12;;;;;;;;;;;;;;;25.65;35.20;98372.78;7363703;19;19929;-75
2023/06/16 08:44:40;;;;;;;;;;;;;;;25.70;34.33;98370.13;7368597;19;20325;-74
2023/06/16 08:47:08;;;;;;;;;;;;;;;25.73;29.40;98375.03;7365193;19;19915;-75
2023/06/16 08:49:35;;;;;;;;;;;;;;;25.61;28.92;98371.66;7367018;19;19918;-73
2023/06/16 08:52:02;;;;;;;;;;;;;;;25.90;27.62;98371.44;7371973;19;19923;-75
2023/06/16 08:54:31;;;;;;;;;;;;;;;26.37;27.99;98368.09;7371215;19;19914;-74
2023/06/16 08:56:57;;;;;;;;;;;;;;;26.16;30.63;98370.63;7368159;19;19930;-75
2023/06/16 08:59:25;;;;;;;;;;;;;;;26.40;32.17;98365.69;7364020;19;19919;-73
2023/06/16 09:01:51;;;;;;;;;;;;;;;26.60;29.66;98365.06;7370121;19;19940;-73
2023/06/16 09:04:19;;;;;;;;;;;;;;;26.66;27.34;98361.28;7363791;19;19923;-74
2023/06/16 09:06:47;;;;;;;;;;;;;;;26.68;24.33;98366.47;7369410;19;19932;-74
2023/06/16 09:09:16;;;;;;;;;;;;;;;26.77;25.39;98354.03;7360047;19;19929;-73
2023/06/16 09:11:43;;;;;;;;;;;;;;;27.05;25.23;98365.63;7367173;19;19921;-73
2023/06/16 09:14:11;;;;;;;;;;;;;;;27.07;24.49;98360.75;7365284;19;19911;-73
2023/06/16 09:16:39;;;;;;;;;;;;;;;26.82;24.99;98361.41;7372153;19;20285;-74
2023/06/16 09:19:07;;;;;;;;;;;;;;;27.24;24.38;98352.44;7368173;19;19938;-71
2023/06/16 09:21:34;;;;;;;;;;;;;;;27.34;24.60;98357.91;7369035;19;19923;-73
2023/06/16 09:24:09;;;;;;;;;;;;;;;27.23;23.80;98354.34;7366769;19;19926;-73
2023/06/16 09:26:37;;;;;;;;;;;;;;;27.54;27.36;98349.84;7367742;19;19986;-73
2023/06/16 09:29:21;;;;;;;;;;;;;;;27.56;23.93;98363.97;7366098;19;19918;-73
2023/06/16 09:31:48;;;;;;;;;;;;;;;27.35;26.29;98354.91;7370443;19;19931;-74
2023/06/16 09:34:16;;;;;;;;;;;;;;;27.57;23.95;98356.66;7365499;19;19915;-73
2023/06/16 09:36:43;;;;;;;;;;;;;;;27.96;23.07;98338.03;7376786;19;19927;-73
2023/06/16 09:39:25;;;;;;;;;;;;;;;28.07;23.80;98347.00;7375781;19;20259;-73
2023/06/16 09:41:54;;;;;;;;;;;;;;;28.02;24.50;98342.38;7375753;19;19927;-73
2023/06/16 09:44:23;;;;;;;;;;;;;;;28.37;25.57;98345.38;7372575;19;19948;-73
2023/06/16 09:46:49;;;;;;;;;;;;;;;28.21;24.11;98342.66;7380160;19;20311;-72
2023/06/16 09:49:18;;;;;;;;;;;;;;;28.00;24.80;98339.09;7372114;19;19942;-73
2023/06/16 09:51:48;;;;;;;;;;;;;;;28.02;27.08;98334.22;7375990;19;20268;-73
2023/06/16 09:54:15;;;;;;;;;;;;;;;27.96;24.88;98332.59;7375084;19;20339;-74
2023/06/16 09:56:43;;;;;;;;;;;;;;;27.76;25.29;98333.31;7377407;19;19923;-74
2023/06/16 09:59:09;;;;;;;;;;;;;;;27.96;24.20;98329.03;7371857;19;20610;-74
2023/06/16 10:01:36;;;;;;;;;;;;;;;28.11;24.49;98328.22;7372612;19;19919;-74
2023/06/16 10:04:03;;;;;;;;;;;;;;;28.12;24.98;98327.13;7376492;19;19915;-74
2023/06/16 10:06:30;;;;;;;;;;;;;;;27.69;28.06;98326.50;7373422;19;19982;-73
2023/06/16 10:08:57;;;;;;;;;;;;;;;27.79;24.03;98326.53;7375551;19;20401;-74
2023/06/16 10:11:23;;;;;;;;;;;;;;;27.95;26.64;98333.66;7370887;19;19934;-73
2023/06/16 10:13:50;;;;;;;;;;;;;;;27.67;24.25;98326.75;7375268;19;19926;-74
2023/06/16 10:16:17;;;;;;;;;;;;;;;27.63;25.36;98322.97;7369312;19;20432;-72
2023/06/16 10:18:44;;;;;;;;;;;;;;;27.56;25.72;98322.41;7371463;19;19918;-73
2023/06/16 10:21:11;;;;;;;;;;;;;;;27.48;25.74;98320.19;7372068;19;20000;-72
2023/06/16 10:23:37;;;;;;;;;;;;;;;27.49;24.52;98319.94;7377248;19;20027;-74
2023/06/16 10:26:05;;;;;;;;;;;;;;;27.64;26.15;98324.59;7377983;19;19937;-73
2023/06/16 10:28:32;;;;;;;;;;;;;;;27.82;25.90;98325.22;7370650;19;19933;-74
2023/06/16 10:30:59;;;;;;;;;;;;;;;27.82;26.90;98314.34;7375832;19;19923;-73
2023/06/16 10:33:28;;;;;;;;;;;;;;;27.97;27.14;98320.59;7368889;19;19922;-71
2023/06/16 10:35:56;;;;;;;;;;;;;;;28.04;24.18;98314.88;7375450;19;19919;-72
2023/06/16 10:38:41;;;;;;;;;;;;;;;28.36;25.01;98322.81;7375985;19;20479;-74
2023/06/16 10:41:12;;;;;;;;;;;;;;;28.37;26.99;98316.25;7375569;19;19982;-72
2023/06/16 10:43:38;;;;;;;;;;;;;;;28.03;25.99;98324.16;7371861;19;19942;-75
2023/06/16 10:46:15;;;;;;;;;;;;;;;27.62;25.90;98317.78;7375390;19;19911;-73
2023/06/16 10:48:51;;;;;;;;;;;;;;;27.09;26.14;98315.97;7370499;19;19927;-74
2023/06/16 10:51:37;;;;;;;;;;;;;;;27.17;28.37;98316.50;7367463;19;19948;-71
2023/06/16 10:54:06;;;;;;;;;;;;;;;27.41;26.47;98314.19;7377312;19;19942;-73
2023/06/16 10:56:51;;;;;;;;;;;;;;;27.38;27.81;98312.81;7369623;19;19915;-72
2023/06/16 10:59:51;;;;;;;;;;;;;;;27.30;25.64;98316.88;7370858;19;19919;-73
2023/06/16 11:02:20;;;;;;;;;;;;;;;27.13;24.13;98311.63;7367619;19;19930;-72
2023/06/16 11:05:05;;;;;;;;;;;;;;;26.73;26.95;98314.13;7373992;19;19919;-73
2023/06/16 11:07:32;;;;;;;;;;;;;;;26.13;28.02;98311.50;7365743;19;19914;-73
2023/06/16 11:10:00;;;;;;;;;;;;;;;25.96;26.71;98310.78;7373412;19;19929;-74
2023/06/16 11:12:27;;;;;;;;;;;;;;;26.26;27.05;98308.34;7369453;19;20368;-73
2023/06/16 11:14:55;;;;;;;;;;;;;;;26.59;24.75;98313.75;7374671;19;19929;-74
2023/06/16 11:17:22;;;;;;;;;;;;;;;26.65;27.08;98310.03;7368467;19;19918;-73
2023/06/16 11:19:53;;;;;;;;;;;;;;;26.20;28.71;98309.41;7372161;19;19926;-73
2023/06/16 11:22:27;;;;;;;;;;;;;;;26.11;27.33;98316.34;7364562;19;19986;-75
2023/06/16 11:24:54;;;;;;;;;;;;;;;26.32;26.14;98308.38;7373168;19;19918;-73
2023/06/16 11:27:21;;;;;;;;;;;;;;;26.41;27.48;98309.53;7370342;19;19993;-74
2023/06/16 11:29:48;;;;;;;;;;;;;;;26.39;26.43;98309.00;7373656;19;20392;-73
2023/06/16 11:32:18;;;;;;;;;;;;;;;26.63;26.19;98306.75;7367240;19;19918;-70
2023/06/16 11:34:45;;;;;;;;;;;;;;;26.56;26.94;98304.25;7373343;19;19919;-71
2023/06/16 11:37:12;;;;;;;;;;;;;;;26.44;26.26;98300.91;7373678;19;20249;-72
2023/06/16 11:39:42;;;;;;;;;;;;;;;26.66;26.57;98285.31;7365701;19;19918;-73
2023/06/16 11:42:12;;;;;;;;;;;;;;;26.65;26.80;98299.97;7369125;19;19921;-73
2023/06/16 11:44:39;;;;;;;;;;;;;;;26.68;25.28;98299.44;7370370;19;19924;-73
2023/06/16 11:47:06;;;;;;;;;;;;;;;26.86;26.45;98290.06;7376153;19;19964;-71
2023/06/16 11:49:36;;;;;;;;;;;;;;;26.76;24.81;98294.63;7368679;19;20287;-73
2023/06/16 11:52:06;;;;;;;;;;;;;;;26.90;23.63;98290.34;7374107;19;19927;-73
2023/06/16 11:54:33;;;;;;;;;;;;;;;26.78;25.66;98285.13;7370719;19;20338;-72
2023/06/16 11:57:02;;;;;;;;;;;;;;;26.72;25.82;98294.28;7373532;19;19940;-73
2023/06/16 11:59:30;;;;;;;;;;;;;;;26.60;26.26;98294.50;7369310;19;19922;-72
2023/06/16 12:01:57;;;;;;;;;;;;;;;26.87;27.01;98288.97;7373229;19;19926;-74
2023/06/16 12:04:25;;;;;;;;;;;;;;;26.93;26.46;98289.81;7368142;19;19922;-73
2023/06/16 12:06:52;;;;;;;;;;;;;;;26.75;26.40;98284.81;7374291;19;19918;-71
2023/06/16 12:09:19;;;;;;;;;;;;;;;26.91;25.44;98284.66;7366891;19;19927;-72
2023/06/16 12:11:47;;;;;;;;;;;;;;;26.54;26.46;98286.59;7366261;19;19926;-72
2023/06/16 12:14:20;;;;;;;;;;;;;;;26.54;25.61;98286.59;7366600;19;20363;-72
2023/06/16 12:16:48;;;;;;;;;;;;;;;26.97;26.48;98284.69;7371898;19;19939;-73
2023/06/16 12:19:20;;;;;;;;;;;;;;;27.10;26.49;98279.56;7372933;19;19938;-72
2023/06/16 12:21:54;;;;;;;;;;;;;;;27.30;25.31;98267.16;7370624;19;19926;-71
2023/06/16 12:24:21;;;;;;;;;;;;;;;27.68;26.72;98273.25;7369362;19;19927;-73
2023/06/16 12:26:48;;;;;;;;;;;;;;;27.87;24.85;98271.66;7371409;19;19919;-73
2023/06/16 12:29:15;;;;;;;;;;;;;;;28.09;24.63;98263.22;7368843;19;19918;-72
2023/06/16 12:31:52;;;;;;;;;;;;;;;27.60;26.91;98277.31;7361128;19;19923;-73
2023/06/16 12:34:19;;;;;;;;;;;;;;;27.03;25.16;98270.84;7368628;19;19914;-72
2023/06/16 12:36:47;;;;;;;;;;;;;;;26.81;26.77;98273.75;7372143;19;20400;-70
2023/06/16 12:39:17;;;;;;;;;;;;;;;27.23;25.61;98272.06;7373257;19;19923;-74
2023/06/16 12:42:00;;;;;;;;;;;;;;;27.26;27.10;98268.78;7362925;19;19915;-74
2023/06/16 12:44:46;;;;;;;;;;;;;;;27.56;26.72;98270.75;7367075;19;20336;-74
2023/06/16 12:47:13;;;;;;;;;;;;;;;27.58;26.34;98258.53;7363582;19;19918;-71
2023/06/16 12:49:40;;;;;;;;;;;;;;;27.90;26.41;98271.09;7363236;19;19919;-71
2023/06/16 12:52:12;;;;;;;;;;;;;;;27.74;26.13;98269.44;7366926;19;20268;-74
2023/06/16 12:54:40;;;;;;;;;;;;;;;27.38;25.44;98269.34;7365023;19;22198;-72